Sunday, September 25, 2016, 4:45 AM EDT

KOFP, Hanover County Municipal

Location: Ashland, VA, United States Lat: 37.7
Local Time: 4:45 AM EDT ( 8:45 GMT) Lon: -77.433
Time Zone: US/Eastern Elev: 203 ft

Show me the last for .
Show Decoded

2016-09-25 03:54 METAR KOFP 250754Z AUTO 00000KT 10SM OVC050 19/17 A3016 RMK AO2 SLP210 T01890167
                 =
2016-09-25 02:54 METAR KOFP 250654Z AUTO 00000KT 9SM BKN050 OVC060 19/17 A3016 RMK AO2 SLP210
                 T01890167 =
2016-09-25 01:54 METAR KOFP 250554Z AUTO 00000KT 10SM FEW049 OVC060 19/17 A3016 RMK AO2 SLP211
                 60000 T01940167 10211 20194 51004 =
2016-09-25 00:54 METAR KOFP 250454Z AUTO 00000KT 9SM OVC048 19/17 A3015 RMK AO2 RAB0356E08 SLP209
                 P0000 T01940172 402940172 =
2016-09-25 00:16 METAR KOFP 250416Z AUTO 00000KT 9SM FEW026 OVC046 20/17 A3015 RMK AO2 RAB0356E08
                 P0000 T02000172 =
2016-09-25 00:07 METAR KOFP 250407Z AUTO 08004KT 9SM -RA FEW022 BKN027 OVC045 20/17 A3015 RMK AO2
                 RAB0356 P0000 T02000172 =
2016-09-24 23:54 METAR KOFP 250354Z AUTO VRB04KT 9SM SCT021 OVC046 20/17 A3015 RMK AO2 SLP209
                 T02000172 =
2016-09-24 23:14 METAR KOFP 250314Z AUTO 00000KT 9SM BKN020 OVC044 20/18 A3014 RMK AO2 T02000178
                 =
2016-09-24 22:54 METAR KOFP 250254Z AUTO 00000KT 9SM FEW021 OVC043 21/18 A3015 RMK AO2 SLP206
                 T02060178 51016 =
2016-09-24 21:54 METAR KOFP 250154Z AUTO 00000KT 9SM BKN043 OVC055 21/17 A3013 RMK AO2 SLP203
                 T02060172 =
2016-09-24 20:54 METAR KOFP 250054Z AUTO VRB03KT 9SM FEW040 BKN065 OVC080 21/17 A3012 RMK AO2
                 SLP198 T02110172 =
2016-09-24 19:54 METAR KOFP 242354Z AUTO VRB03KT 9SM BKN039 21/18 A3010 RMK AO2 SLP190 T02110178
                 10289 20211 51014 =
2016-09-24 19:03 METAR KOFP 242303Z AUTO 00000KT 8SM SCT022 22/18 A3009 RMK AO2 T02220178 =
2016-09-24 18:54 METAR KOFP 242254Z AUTO VRB05KT 8SM BKN021 22/18 A3009 RMK AO2 SLP186 T02220178
                 =
2016-09-24 17:54 METAR KOFP 242154Z AUTO 07008KT 040V100 9SM CLR 24/18 A3007 RMK AO2 SLP180
                 T02390183 =
2016-09-24 16:54 METAR KOFP 242054Z AUTO VRB04KT 8SM FEW025 SCT100 26/19 A3006 RMK AO2 SLP176
                 T02560189 55000 =
2016-09-24 15:54 METAR KOFP 241954Z AUTO VRB06KT 9SM FEW028 BKN110 27/19 A3005 RMK AO2 SLP174
                 T02670194 =
2016-09-24 14:54 METAR KOFP 241854Z AUTO 06007KT 020V080 10SM FEW030 29/20 A3004 RMK AO2 SLP172
                 T02890200 =
2016-09-24 13:54 METAR KOFP 241754Z AUTO VRB06KT 10SM CLR 28/19 A3006 RMK AO2 SLP176 T02830194
                 10294 20183 58006 =
2016-09-24 12:54 METAR KOFP 241654Z AUTO VRB06KT 10SM CLR 29/19 A3007 RMK AO2 SLP181 T02890189 =
2016-09-24 11:54 METAR KOFP 241554Z AUTO 04005KT 10SM CLR 28/19 A3007 RMK AO2 SLP181 T02830189 =
2016-09-24 10:54 METAR KOFP 241454Z AUTO VRB05KT 10SM CLR 27/18 A3008 RMK AO2 SLP182 T02670183
                 53010 =
2016-09-24 09:54 METAR KOFP 241354Z AUTO 36006KT 10SM CLR 26/18 A3006 RMK AO2 SLP177 T02560183 =
2016-09-24 08:54 METAR KOFP 241254Z AUTO 25003KT 10SM CLR 23/18 A3005 RMK AO2 SLP172 T02280183 =
2016-09-24 07:54 METAR KOFP 241154Z AUTO 00000KT 5SM BR CLR 18/17 A3005 RMK AO2 SLP172 T01830172
                 10183 20172 53007 =
2016-09-24 07:36 METAR KOFP 241136Z AUTO 00000KT 7SM CLR 18/17 A3004 RMK AO2 T01780167 =
2016-09-24 07:26 METAR KOFP 241126Z AUTO 00000KT 1 1/2SM BR CLR 18/17 A3004 RMK AO2 VIS 1/2V5
                 T01780167 =
2016-09-24 06:54 METAR KOFP 241054Z AUTO 00000KT 4SM BR CLR 17/16 A3003 RMK AO2 SLP169 T01720161
                 =
2016-09-24 06:46 METAR KOFP 241046Z AUTO 00000KT 2SM BR CLR 17/17 A3003 RMK AO2 VIS 3/4V4
                 T01720167 =
2016-09-24 06:35 METAR KOFP 241035Z AUTO 00000KT 1 1/4SM BR CLR 17/17 A3003 RMK AO2 T01720167 =
2016-09-24 06:32 METAR KOFP 241032Z AUTO 00000KT 2SM BR CLR 17/16 A3003 RMK AO2 T01720161 =
2016-09-24 06:13 METAR KOFP 241013Z AUTO 00000KT 1 1/4SM BR CLR 17/17 A3002 RMK AO2 VIS 1/2V4
                 T01720167 =
2016-09-24 06:08 METAR KOFP 241008Z AUTO 00000KT 2 1/2SM BR CLR 17/16 A3002 RMK AO2 VIS 2V4
                 T01720161 =
2016-09-24 05:54 METAR KOFP 240954Z AUTO 00000KT 1 3/4SM BR CLR 17/17 A3003 RMK AO2 SLP166
                 T01720167 =
2016-09-24 05:48 METAR KOFP 240948Z AUTO 00000KT 1 1/2SM BR CLR 17/17 A3003 RMK AO2 =
2016-09-24 05:02 METAR KOFP 240902Z AUTO 00000KT 3/4SM BR CLR 17/17 A3002 RMK AO2 T01720167 =
2016-09-24 04:59 METAR KOFP 240859Z AUTO 00000KT 1 3/4SM BR CLR 17/17 A3002 RMK AO2 T01720167 =
2016-09-24 04:54 METAR KOFP 240854Z AUTO 00000KT 3SM BR CLR 18/17 A3002 RMK AO2 SLP165 T01780167
                 55000 =

Support USWX by starting your Amazon purchase here.